createdAt,value
2019-01-30T00:00:51.468Z,57.37
2019-01-30T00:03:20.293Z,71.77
2019-01-30T00:05:49.067Z,68.30
2019-01-30T00:08:18.042Z,60.50
2019-01-30T00:10:46.850Z,65.27
2019-01-30T00:13:15.639Z,63.97
2019-01-30T00:15:44.529Z,54.33
2019-01-30T00:18:13.299Z,62.73
2019-01-30T00:20:42.117Z,64.83
2019-01-30T00:23:10.979Z,56.40
2019-01-30T00:25:39.768Z,59.97
2019-01-30T00:28:08.675Z,48.83
2019-01-30T00:30:37.444Z,54.50
2019-01-30T00:33:06.151Z,45.10
2019-01-30T00:35:35.041Z,50.60
2019-01-30T00:38:03.935Z,41.10
2019-01-30T00:40:32.574Z,48.33
2019-01-30T00:43:01.306Z,46.63
2019-01-30T00:45:30.097Z,69.23
2019-01-30T00:47:58.782Z,62.77
2019-01-30T00:50:27.469Z,54.60
2019-01-30T00:52:56.362Z,44.00
2019-01-30T00:55:25.132Z,49.37
2019-01-30T00:57:53.914Z,43.87
2019-01-30T01:00:25.179Z,47.53
2019-01-30T01:02:53.848Z,51.30
2019-01-30T01:05:22.760Z,49.73
2019-01-30T01:07:51.654Z,46.70
2019-01-30T01:10:21.650Z,45.90
2019-01-30T01:12:50.341Z,40.13
2019-01-30T01:15:19.122Z,47.13
2019-01-30T01:17:47.934Z,48.57
2019-01-30T01:20:20.793Z,47.93
2019-01-30T01:22:49.613Z,47.20
2019-01-30T01:25:18.704Z,48.10
2019-01-30T01:27:47.502Z,54.50
2019-01-30T01:30:25.794Z,58.20
2019-01-30T01:32:54.695Z,61.90
2019-01-30T01:35:23.357Z,60.67
2019-01-30T01:37:52.173Z,62.27
2019-01-30T01:40:20.859Z,64.17
2019-01-30T01:42:49.554Z,62.03
2019-01-30T01:45:20.795Z,65.37
2019-01-30T01:47:49.453Z,68.47
2019-01-30T01:50:19.612Z,63.87
2019-01-30T01:52:48.386Z,63.37
2019-01-30T01:55:17.085Z,62.53
2019-01-30T01:57:45.863Z,56.77
2019-01-30T02:00:19.463Z,53.43
2019-01-30T02:02:48.325Z,53.87
2019-01-30T02:05:21.633Z,57.27
2019-01-30T02:07:50.629Z,58.60
2019-01-30T02:10:21.486Z,56.30
2019-01-30T02:12:50.268Z,57.40
2019-01-30T02:15:20.680Z,58.90
2019-01-30T02:17:49.357Z,61.13
2019-01-30T02:20:23.370Z,55.40
2019-01-30T02:22:52.064Z,53.93
2019-01-30T02:25:20.845Z,54.67
2019-01-30T02:27:49.763Z,53.37
2019-01-30T02:30:29.918Z,51.10
2019-01-30T02:32:58.686Z,53.70
2019-01-30T02:35:27.391Z,52.53
2019-01-30T02:37:56.057Z,52.90
2019-01-30T02:40:25.562Z,53.17
2019-01-30T02:42:54.272Z,53.10
2019-01-30T02:45:25.209Z,53.50
2019-01-30T02:47:54.098Z,42.23
2019-01-30T02:50:22.789Z,50.63
2019-01-30T02:52:51.576Z,49.77
2019-01-30T02:55:20.551Z,54.13
2019-01-30T02:57:49.847Z,52.27
2019-01-30T03:00:32.996Z,55.07
2019-01-30T03:03:01.682Z,53.50
2019-01-30T03:05:30.368Z,51.30
2019-01-30T03:07:59.258Z,52.80
2019-01-30T03:10:27.921Z,51.17
2019-01-30T03:12:56.630Z,51.40
2019-01-30T03:15:25.420Z,51.50
2019-01-30T03:17:54.111Z,52.80
2019-01-30T03:20:24.734Z,50.57
2019-01-30T03:22:53.631Z,48.20
2019-01-30T03:25:24.111Z,47.30
2019-01-30T03:27:52.846Z,50.07
2019-01-30T03:30:24.412Z,44.50
2019-01-30T03:32:53.293Z,40.93
2019-01-30T03:35:21.961Z,41.50
2019-01-30T03:37:50.767Z,41.80
2019-01-30T03:40:20.619Z,42.23
2019-01-30T03:42:49.368Z,43.77
2019-01-30T03:45:20.639Z,43.33
2019-01-30T03:47:49.405Z,40.83
2019-01-30T03:50:18.088Z,40.37
2019-01-30T03:52:46.878Z,43.30
2019-01-30T03:55:17.235Z,43.60
2019-01-30T03:57:45.992Z,43.53
2019-01-30T04:00:19.417Z,44.90
2019-01-30T04:02:48.158Z,49.77
2019-01-30T04:05:16.872Z,50.23
2019-01-30T04:07:45.655Z,46.73
2019-01-30T04:10:16.908Z,48.63
2019-01-30T04:12:45.793Z,54.23
2019-01-30T04:15:14.584Z,54.83
2019-01-30T04:17:43.370Z,54.03
2019-01-30T04:20:14.910Z,52.40
2019-01-30T04:22:43.716Z,53.73
2019-01-30T04:25:12.608Z,58.63
2019-01-30T04:27:41.297Z,57.17
2019-01-30T04:30:15.820Z,57.63
2019-01-30T04:32:44.601Z,54.50
2019-01-30T04:35:13.289Z,56.73
2019-01-30T04:37:42.055Z,57.53
2019-01-30T04:40:16.150Z,57.33
2019-01-30T04:42:44.856Z,54.10
2019-01-30T04:45:16.714Z,54.57
2019-01-30T04:47:45.409Z,51.30
2019-01-30T04:50:14.317Z,54.73
2019-01-30T04:52:43.087Z,65.73
2019-01-30T04:55:11.792Z,70.23
2019-01-30T04:57:40.478Z,62.63
2019-01-30T05:00:15.093Z,63.53
2019-01-30T05:02:43.881Z,58.70
2019-01-30T05:05:13.606Z,56.40
2019-01-30T05:07:42.394Z,66.17
2019-01-30T05:10:12.649Z,71.30
2019-01-30T05:12:41.402Z,77.00
2019-01-30T05:15:12.834Z,78.07
2019-01-30T05:17:41.643Z,85.30
2019-01-30T05:20:12.804Z,99.40
2019-01-30T05:22:41.576Z,122.23
2019-01-30T05:25:11.023Z,101.77
2019-01-30T05:27:39.846Z,79.33
2019-01-30T05:30:23.795Z,73.10
2019-01-30T05:32:52.501Z,82.00
2019-01-30T05:35:21.186Z,78.10
2019-01-30T05:37:51.364Z,75.17
2019-01-30T05:40:22.153Z,67.03
2019-01-30T05:42:51.034Z,66.27
2019-01-30T05:45:19.831Z,64.10
2019-01-30T05:47:48.514Z,59.03
2019-01-30T05:50:17.197Z,69.50
2019-01-30T05:52:46.090Z,64.03
2019-01-30T05:55:16.201Z,60.30
2019-01-30T05:57:44.998Z,59.43
2019-01-30T06:00:29.352Z,61.30
2019-01-30T06:02:58.037Z,82.27
2019-01-30T06:05:26.665Z,95.33
2019-01-30T06:07:55.513Z,95.93
2019-01-30T06:10:24.300Z,91.87
2019-01-30T06:12:53.090Z,95.97
2019-01-30T06:15:22.069Z,114.23
2019-01-30T06:17:50.872Z,115.13
2019-01-30T06:20:25.192Z,90.20
2019-01-30T06:22:54.391Z,89.00
2019-01-30T06:25:23.625Z,107.50
2019-01-30T06:27:52.562Z,97.57
2019-01-30T06:30:23.255Z,86.17
2019-01-30T06:32:52.004Z,101.77
2019-01-30T06:35:20.791Z,115.70
2019-01-30T06:37:49.563Z,112.13
2019-01-30T06:40:29.838Z,135.40
2019-01-30T06:42:58.732Z,128.80
2019-01-30T06:45:27.625Z,138.53
2019-01-30T06:47:56.616Z,133.27
2019-01-30T06:50:25.404Z,133.57
2019-01-30T06:52:54.192Z,122.47
2019-01-30T06:55:23.074Z,118.03
2019-01-30T06:57:51.873Z,111.77
2019-01-30T07:00:22.719Z,100.37
2019-01-30T07:02:51.601Z,111.30
2019-01-30T07:05:20.395Z,96.93
2019-01-30T07:07:49.284Z,102.87
2019-01-30T07:10:22.902Z,104.13
2019-01-30T07:12:51.671Z,103.23
2019-01-30T07:15:20.511Z,94.73
2019-01-30T07:17:49.393Z,107.20
2019-01-30T07:20:18.145Z,111.67
2019-01-30T07:22:46.918Z,97.67
2019-01-30T07:25:17.549Z,96.13
2019-01-30T07:27:46.236Z,81.83
2019-01-30T07:30:23.722Z,107.63
2019-01-30T07:32:52.530Z,95.70
2019-01-30T07:35:21.216Z,108.83
2019-01-30T07:37:50.007Z,129.80
2019-01-30T07:40:18.691Z,149.40
2019-01-30T07:42:47.480Z,125.73
2019-01-30T07:45:18.580Z,138.23
2019-01-30T07:47:47.311Z,112.63
2019-01-30T07:50:15.996Z,110.13
2019-01-30T07:52:44.887Z,89.47
2019-01-30T07:55:15.505Z,102.27
2019-01-30T07:57:44.212Z,79.83
2019-01-30T08:00:18.795Z,83.13
2019-01-30T08:02:53.282Z,83.07
2019-01-30T08:05:17.846Z,124.27
2019-01-30T08:07:46.737Z,138.40
2019-01-30T08:10:16.221Z,111.53
2019-01-30T08:12:44.910Z,102.10
2019-01-30T08:15:15.932Z,94.53
2019-01-30T08:17:44.655Z,99.13
2019-01-30T08:20:15.386Z,110.53
2019-01-30T08:22:44.179Z,69.70
2019-01-30T08:25:16.409Z,71.50
2019-01-30T08:27:45.399Z,61.30
2019-01-30T08:30:22.453Z,73.00
2019-01-30T08:32:47.672Z,76.13
2019-01-30T08:35:17.585Z,77.87
2019-01-30T08:37:46.427Z,75.10
2019-01-30T08:40:15.102Z,75.50
2019-01-30T08:42:43.798Z,72.60
2019-01-30T08:45:15.877Z,92.80
2019-01-30T08:47:44.555Z,86.20
2019-01-30T08:50:14.520Z,83.13
2019-01-30T08:52:43.354Z,79.60
2019-01-30T08:55:13.087Z,85.23
2019-01-30T08:57:43.612Z,79.03
2019-01-30T09:00:23.053Z,70.37
2019-01-30T09:02:54.152Z,64.50
2019-01-30T09:05:23.476Z,55.47
2019-01-30T09:07:55.690Z,56.63
2019-01-30T09:10:28.575Z,45.67
2019-01-30T09:12:57.441Z,46.13
2019-01-30T09:15:29.386Z,39.20
2019-01-30T09:17:58.158Z,34.57
2019-01-30T09:20:26.960Z,30.43
2019-01-30T09:22:55.869Z,32.83
2019-01-30T09:25:27.096Z,58.53
2019-01-30T09:27:55.887Z,33.93
2019-01-30T09:30:26.653Z,41.43
2019-01-30T09:32:55.797Z,59.87
2019-01-30T09:35:24.623Z,56.07
2019-01-30T09:37:53.507Z,54.47
2019-01-30T09:40:22.629Z,62.83
2019-01-30T09:42:51.322Z,57.50
2019-01-30T09:45:22.317Z,51.40
2019-01-30T09:47:51.001Z,63.07
2019-01-30T09:50:24.158Z,62.57
2019-01-30T09:52:53.783Z,70.57
2019-01-30T09:55:22.745Z,86.60
2019-01-30T09:57:51.630Z,74.20
2019-01-30T10:00:31.869Z,81.53
2019-01-30T10:03:00.547Z,67.40
2019-01-30T10:05:29.447Z,91.50
2019-01-30T10:07:58.340Z,77.70
2019-01-30T10:10:31.838Z,67.67
2019-01-30T10:13:00.792Z,76.30
2019-01-30T10:15:35.352Z,58.73
2019-01-30T10:18:04.300Z,60.30
2019-01-30T10:20:34.258Z,60.07
2019-01-30T10:23:03.459Z,64.27
2019-01-30T10:25:32.149Z,64.50
2019-01-30T10:28:00.814Z,60.07
2019-01-30T10:30:31.937Z,59.77
2019-01-30T10:33:00.769Z,60.87
2019-01-30T10:35:29.783Z,60.17
2019-01-30T10:37:58.651Z,67.73
2019-01-30T10:40:27.631Z,62.40
2019-01-30T10:42:57.379Z,72.77
2019-01-30T10:45:26.759Z,62.53
2019-01-30T10:47:55.550Z,75.13
2019-01-30T10:50:29.871Z,63.13
2019-01-30T10:52:58.659Z,83.57
2019-01-30T10:55:29.414Z,69.30
2019-01-30T10:57:59.592Z,70.03
2019-01-30T11:00:41.831Z,70.33
2019-01-30T11:03:10.752Z,71.17
2019-01-30T11:05:39.584Z,62.00
2019-01-30T11:08:08.330Z,77.33
2019-01-30T11:10:37.046Z,64.63
2019-01-30T11:13:06.600Z,66.20
2019-01-30T11:15:35.450Z,62.37
2019-01-30T11:18:06.046Z,69.40
2019-01-30T11:20:34.793Z,61.60
2019-01-30T11:23:03.787Z,57.17
2019-01-30T11:25:35.115Z,70.00
2019-01-30T11:28:04.027Z,77.10
2019-01-30T11:30:35.013Z,75.83
2019-01-30T11:33:03.406Z,75.23
2019-01-30T11:35:32.215Z,69.77
2019-01-30T11:38:01.020Z,68.13
2019-01-30T11:40:30.131Z,55.60
2019-01-30T11:42:58.878Z,59.90
2019-01-30T11:45:33.125Z,57.37
2019-01-30T11:48:01.807Z,55.10
2019-01-30T11:50:30.578Z,52.70
2019-01-30T11:52:59.385Z,46.70
2019-01-30T11:55:28.176Z,46.43
2019-01-30T11:57:56.862Z,38.17
2019-01-30T12:00:40.806Z,42.30
2019-01-30T12:03:09.516Z,37.20
2019-01-30T12:05:38.384Z,36.73
2019-01-30T12:08:07.146Z,43.73
2019-01-30T12:10:35.863Z,35.33
2019-01-30T12:13:04.545Z,43.00
2019-01-30T12:15:33.315Z,34.77
2019-01-30T12:18:02.226Z,39.53
2019-01-30T12:20:31.014Z,33.50
2019-01-30T12:23:00.008Z,43.70
2019-01-30T12:25:28.836Z,32.70
2019-01-30T12:27:57.790Z,37.70
2019-01-30T12:30:30.369Z,34.33
2019-01-30T12:32:59.158Z,33.83
2019-01-30T12:35:27.820Z,41.27
2019-01-30T12:37:56.634Z,35.63
2019-01-30T12:40:26.222Z,40.50
2019-01-30T12:42:55.152Z,38.20
2019-01-30T12:45:26.773Z,42.43
2019-01-30T12:47:56.805Z,41.43
2019-01-30T12:50:25.490Z,38.70
2019-01-30T12:52:54.254Z,39.83
2019-01-30T12:55:23.174Z,36.03
2019-01-30T12:57:52.166Z,41.00
2019-01-30T13:00:23.411Z,34.40
2019-01-30T13:02:52.182Z,34.97
2019-01-30T13:05:21.570Z,33.97
2019-01-30T13:07:50.496Z,34.13
2019-01-30T13:10:19.182Z,50.07
2019-01-30T13:12:47.847Z,53.00
2019-01-30T13:15:22.491Z,86.00
2019-01-30T13:17:51.283Z,123.07
2019-01-30T13:20:21.278Z,139.43
2019-01-30T13:22:50.266Z,41.97
2019-01-30T13:25:21.641Z,40.57
2019-01-30T13:27:50.430Z,45.70
2019-01-30T13:30:36.628Z,53.00
2019-01-30T13:33:05.692Z,40.97
2019-01-30T13:35:34.476Z,52.53
2019-01-30T13:38:03.305Z,49.60
2019-01-30T13:40:34.525Z,55.37
2019-01-30T13:43:03.323Z,51.30
2019-01-30T13:45:32.228Z,62.17
2019-01-30T13:48:01.020Z,45.63
2019-01-30T13:50:30.383Z,60.70
2019-01-30T13:52:59.312Z,51.37
2019-01-30T13:55:28.082Z,74.53
2019-01-30T13:57:56.864Z,78.83
2019-01-30T14:00:28.434Z,76.63
2019-01-30T14:02:57.266Z,86.47
2019-01-30T14:05:26.070Z,58.57
2019-01-30T14:07:54.809Z,80.13
2019-01-30T14:10:23.497Z,63.83
2019-01-30T14:12:52.197Z,75.70
2019-01-30T14:15:23.201Z,53.57
2019-01-30T14:17:51.943Z,62.20
2019-01-30T14:20:20.877Z,57.73
2019-01-30T14:22:49.918Z,68.00
2019-01-30T14:25:18.573Z,52.40
2019-01-30T14:27:47.371Z,49.80
2019-01-30T14:30:19.321Z,47.63
2019-01-30T14:32:48.347Z,42.60
2019-01-30T14:35:17.326Z,49.87
2019-01-30T14:37:46.108Z,54.20
2019-01-30T14:40:20.149Z,58.40
2019-01-30T14:42:48.835Z,50.17
2019-01-30T14:45:18.812Z,60.00
2019-01-30T14:47:49.184Z,72.40
2019-01-30T14:50:19.687Z,106.37
2019-01-30T14:52:48.457Z,75.13
2019-01-30T14:55:17.604Z,77.43
2019-01-30T14:57:46.342Z,87.33
2019-01-30T15:00:20.217Z,128.83
2019-01-30T15:02:48.952Z,112.80
2019-01-30T15:05:22.349Z,123.80
2019-01-30T15:07:48.946Z,77.77
2019-01-30T15:10:19.387Z,109.73
2019-01-30T15:12:48.304Z,120.13
2019-01-30T15:15:19.588Z,116.60
2019-01-30T15:17:49.906Z,103.07
2019-01-30T15:20:20.513Z,114.90
2019-01-30T15:22:49.297Z,133.47
2019-01-30T15:25:19.955Z,136.93
2019-01-30T15:27:48.818Z,168.03
2019-01-30T15:30:26.210Z,374.53
2019-01-30T15:32:55.000Z,258.03
2019-01-30T15:35:33.251Z,290.00
2019-01-30T15:37:54.012Z,404.13
2019-01-30T15:40:30.070Z,325.77
2019-01-30T15:42:58.972Z,363.30
2019-01-30T15:45:27.780Z,227.30
2019-01-30T15:47:56.514Z,206.67
2019-01-30T15:50:39.192Z,162.03
2019-01-30T15:53:10.816Z,141.93
2019-01-30T15:55:40.523Z,221.63
2019-01-30T15:58:11.067Z,254.60
2019-01-30T16:00:52.027Z,334.90
2019-01-30T16:03:20.790Z,326.47
2019-01-30T16:05:49.501Z,299.67
2019-01-30T16:08:18.296Z,241.30
2019-01-30T16:10:47.078Z,240.53
2019-01-30T16:13:15.992Z,300.17
2019-01-30T16:15:48.934Z,293.50
2019-01-30T16:18:18.190Z,347.30
2019-01-30T16:20:47.325Z,304.47
2019-01-30T16:23:16.902Z,289.17
2019-01-30T16:25:45.757Z,225.10
2019-01-30T16:28:14.641Z,273.70
2019-01-30T16:30:43.549Z,171.37
2019-01-30T16:33:15.392Z,186.63
2019-01-30T16:35:55.367Z,152.30
2019-01-30T16:38:15.734Z,168.40
2019-01-30T16:40:44.636Z,157.70
2019-01-30T16:46:09.136Z,180.87
2019-01-30T16:48:46.222Z,126.73
2019-01-30T16:51:15.001Z,177.17
2019-01-30T16:53:49.225Z,168.40
2019-01-30T16:56:17.999Z,166.23
2019-01-30T16:58:46.801Z,226.93
2019-01-30T17:01:15.493Z,249.27
2019-01-30T17:03:44.522Z,220.37
2019-01-30T17:06:13.479Z,253.50
2019-01-30T17:08:42.166Z,297.70
2019-01-30T17:11:10.954Z,291.17
2019-01-30T17:13:39.740Z,265.73
2019-01-30T17:16:08.401Z,304.77
2019-01-30T17:18:37.202Z,256.60
2019-01-30T17:21:06.004Z,273.83
2019-01-30T17:23:34.897Z,192.13
2019-01-30T17:26:03.937Z,203.90
2019-01-30T17:28:32.971Z,224.37
2019-01-30T17:31:02.788Z,239.37
2019-01-30T17:33:32.714Z,182.83
2019-01-30T17:36:01.509Z,153.93
2019-01-30T17:38:30.394Z,251.70
2019-01-30T17:40:59.287Z,208.13
2019-01-30T17:43:28.998Z,260.67
2019-01-30T17:45:57.892Z,245.00
2019-01-30T17:48:26.676Z,236.13
2019-01-30T17:50:55.650Z,198.70
2019-01-30T17:53:24.531Z,255.77
2019-01-30T17:55:53.453Z,267.17
2019-01-30T17:58:22.218Z,270.67
2019-01-30T18:00:55.624Z,231.13
2019-01-30T18:03:24.426Z,169.10
2019-01-30T18:05:53.216Z,190.90
2019-01-30T18:08:22.004Z,152.83
2019-01-30T18:10:50.693Z,156.30
2019-01-30T18:13:19.589Z,124.63
2019-01-30T18:15:48.260Z,154.60
2019-01-30T18:18:17.063Z,135.53
2019-01-30T18:20:45.782Z,144.27
2019-01-30T18:23:14.533Z,139.00
2019-01-30T18:25:43.321Z,132.00
2019-01-30T18:28:12.110Z,118.77
2019-01-30T18:30:40.775Z,139.93
2019-01-30T18:33:09.484Z,131.27
2019-01-30T18:35:39.175Z,163.13
2019-01-30T18:38:07.982Z,144.93
2019-01-30T18:40:36.670Z,172.13
2019-01-30T18:43:05.410Z,138.90
2019-01-30T18:45:34.349Z,169.33
2019-01-30T18:48:03.139Z,169.63
2019-01-30T18:50:31.926Z,162.90
2019-01-30T18:53:00.695Z,137.07
2019-01-30T18:55:31.106Z,154.67
2019-01-30T18:58:00.141Z,113.73
2019-01-30T19:00:34.148Z,161.60
2019-01-30T19:03:03.990Z,167.97
2019-01-30T19:05:41.457Z,153.30
2019-01-30T19:08:10.242Z,220.23
2019-01-30T19:10:46.097Z,253.10
2019-01-30T19:13:15.094Z,271.03
2019-01-30T19:15:43.962Z,254.60
2019-01-30T19:18:12.750Z,158.07
2019-01-30T19:20:44.305Z,136.90
2019-01-30T19:23:13.217Z,132.07
2019-01-30T19:25:42.008Z,136.77
2019-01-30T19:28:10.773Z,146.57
2019-01-30T19:30:39.581Z,121.40
2019-01-30T19:33:09.496Z,162.17
2019-01-30T19:35:46.665Z,165.13
2019-01-30T19:38:15.576Z,167.87
2019-01-30T19:40:44.261Z,178.13
2019-01-30T19:43:13.054Z,153.97
2019-01-30T19:45:41.855Z,190.20
2019-01-30T19:48:10.526Z,182.97
2019-01-30T19:50:39.420Z,165.03
2019-01-30T19:53:08.647Z,205.63
2019-01-30T19:55:37.381Z,194.93
2019-01-30T19:58:06.500Z,194.10
2019-01-30T20:00:37.483Z,139.60
2019-01-30T20:03:09.611Z,154.10
2019-01-30T20:05:38.407Z,153.00
2019-01-30T20:08:07.290Z,137.27
2019-01-30T20:10:36.593Z,104.23
2019-01-30T20:13:05.713Z,90.83
2019-01-30T20:15:34.475Z,86.77
2019-01-30T20:18:03.281Z,91.53
2019-01-30T20:20:32.262Z,108.50
2019-01-30T20:23:01.048Z,111.53
2019-01-30T20:25:40.290Z,108.17
2019-01-30T20:28:09.068Z,107.30
2019-01-30T20:30:37.863Z,134.03
2019-01-30T20:33:06.852Z,128.50
2019-01-30T20:35:35.743Z,98.83
2019-01-30T20:38:04.827Z,101.63
2019-01-30T20:40:33.965Z,102.30
2019-01-30T20:43:02.955Z,145.67
2019-01-30T20:45:33.861Z,127.50
2019-01-30T20:48:03.069Z,156.33
2019-01-30T20:50:32.058Z,199.17
2019-01-30T20:53:00.746Z,204.87
2019-01-30T20:55:29.534Z,176.40
2019-01-30T20:57:58.323Z,146.00
2019-01-30T21:00:34.912Z,178.03
2019-01-30T21:03:02.331Z,115.43
2019-01-30T21:05:31.038Z,128.03
2019-01-30T21:08:00.032Z,123.43
2019-01-30T21:10:31.586Z,127.23
2019-01-30T21:13:00.271Z,122.47
2019-01-30T21:15:29.164Z,129.00
2019-01-30T21:18:28.223Z,122.40
2019-01-30T21:20:57.257Z,161.87
2019-01-30T21:23:25.944Z,192.90
2019-01-30T21:25:54.733Z,199.07
2019-01-30T21:28:23.520Z,210.53
2019-01-30T21:30:52.225Z,230.07
2019-01-30T21:33:20.975Z,208.20
2019-01-30T21:35:49.684Z,214.80
2019-01-30T21:38:18.346Z,240.00
2019-01-30T21:40:47.365Z,205.23
2019-01-30T21:43:17.662Z,125.27
2019-01-30T21:45:46.342Z,148.43
2019-01-30T21:48:15.265Z,337.93
2019-01-30T21:50:44.054Z,318.87
2019-01-30T21:53:12.732Z,298.27
2019-01-30T21:55:42.540Z,357.63
2019-01-30T21:58:11.452Z,265.37
2019-01-30T22:00:40.251Z,188.03
2019-01-30T22:05:51.394Z,216.10
2019-01-30T22:08:46.576Z,229.50
2019-01-30T22:11:10.514Z,241.87
2019-01-30T22:17:20.080Z,245.07
2019-01-30T22:19:48.979Z,245.27
2019-01-30T22:22:18.092Z,258.20
2019-01-30T22:25:27.109Z,266.63
2019-01-30T22:27:46.122Z,263.07
2019-01-30T22:30:29.227Z,251.43
2019-01-30T22:32:57.974Z,240.43
2019-01-30T22:35:26.633Z,243.53
2019-01-30T22:37:55.559Z,289.87
2019-01-30T22:40:26.099Z,332.57
2019-01-30T22:42:55.088Z,347.50
2019-01-30T22:45:24.285Z,323.97
2019-01-30T22:47:53.279Z,342.93
2019-01-30T22:50:22.388Z,346.90
2019-01-30T22:52:51.226Z,338.27
2019-01-30T22:55:21.660Z,310.30
2019-01-30T22:57:51.313Z,301.33
2019-01-30T23:00:52.032Z,306.00
2019-01-30T23:03:35.670Z,296.40
2019-01-30T23:06:28.280Z,311.17
2019-01-30T23:09:19.528Z,303.40
2019-01-30T23:12:16.476Z,273.70
2019-01-30T23:14:50.998Z,260.73
2019-01-30T23:17:31.770Z,289.53
2019-01-30T23:20:03.333Z,286.90
2019-01-30T23:22:54.619Z,290.83
2019-01-30T23:25:41.393Z,290.63
2019-01-30T23:28:32.860Z,291.30
2019-01-30T23:31:04.736Z,307.47
2019-01-30T23:34:02.297Z,282.37
2019-01-30T23:36:52.266Z,278.97
2019-01-30T23:39:36.022Z,297.00
2019-01-30T23:42:07.866Z,232.70
2019-01-30T23:44:39.893Z,232.03
2019-01-30T23:47:24.507Z,235.27
2019-01-30T23:50:24.938Z,256.83
2019-01-30T23:52:56.901Z,271.33
2019-01-30T23:55:46.886Z,346.23
2019-01-30T23:58:21.961Z,360.77
